Gruetli, Tennessee
Current Conditions -  °F | °C
As of 6:15 PM on Friday 28 Nov 2014 (Local Time) from KBGF Reporting Station
Clear Clear  
Wind Chill: 32°   Ceiling: Unl
Heat Index: 37°   Visibility: 10mi
Dew Point: 18°   Wind: 7mph
Humidity: 45%   Direction: 150°SSE
Pressure: 30.25"   Gusts: NA
Location:  35.361°N, 85.7446°W
Report Text: KBGF 290015Z AUTO 15006KT 10SM CLR 03/M08 A3025 RMK
Loading
Personal Weather Stations






























Interactive Weather Map New forecast layout! Learn more

10-Day Weather Forecast

Advertisements
Track Severe Weather on mobile